Tulsa, OK

10:14 AM CDT on July 29, 2016 (GMT -0500)
Sheridan Valley - South Tulsa | | Change Station

Elev 774 ft 36.05 °N, 95.90 °W | Updated 5 minutes ago

Partly Cloudy
Partly Cloudy
71.9 °F
Feels Like 72 °F
N
1.0
Wind Variable Wind from NNW
Gusts 6.0 mph

Today
High -- | Low -- °F
--% Chance of Precip.
Yesterday
High -- | Low -- °F
Precip. -- in
Pressure 30.01 in
Visibility 10.0 miles
Clouds Few 11000 ft
Heat Index 72 °F
Dew Point 66 °F
Humidity 81%
Rainfall 0.00 in
Snow Depth Not available.
6:28 AM 8:30 PM
Waning Crescent, 21% visible
METAR KRVS 291453Z AUTO 19007KT 10SM FEW110 22/19 A2999 RMK AO2 LTG DSNT E AND SE RAB20E34 TSE37 SLP160 P0000 60000 T02170194 58003
Pressure 30.01 in
Visibility 10.0 miles
Clouds Few 11000 ft
Heat Index 72 °F
Dew Point 66 °F
Humidity 81%
Rainfall 0.00 in
Snow Depth Not available.
6:28 AM 8:30 PM
Waning Crescent, 21% visible
METAR KRVS 291453Z AUTO 19007KT 10SM FEW110 22/19 A2999 RMK AO2 LTG DSNT E AND SE RAB20E34 TSE37 SLP160 P0000 60000 T02170194 58003

10-Day Weather Forecast

Almanac

Astronomy

Jul. 29, 2016 Rise Set
Actual Time
Civil Twilight
Nautical Twilight
Astronomical Twilight
Moon
Length of Visible Light
Length of Day
Tomorrow will be .
, % of the Moon is Illuminated

Today's Extremes

State Highs State Lows

Community

WunderPhotos

Upload Photos

1,928,345 photos uploaded!

WunderBlog® & News

Nearby

Air Quality

  Air Quality AQ Index Pollutant
Not available.

Snow Depth

Station Depth Elevation

Earthquake Activity

City Distance Mag. Time & Date
Minimum magnitude displayed is 2.5.

Coastal Water Temperatures

Place Temperature

Stations

Nearby Weather Stations

Station Location Temp. Windchill Dew Point Humidity Wind Precip. Elev Updated Type
                   

Watches & Warnings

There are currently no watches in effect.